createdAt,value
2018-12-31T20:05:33.877Z,14.33
2018-12-31T20:08:22.618Z,15.33
2018-12-31T20:11:23.189Z,16.30
2018-12-31T20:13:52.214Z,19.90
2018-12-31T20:16:24.605Z,19.70
2018-12-31T20:19:13.458Z,20.13
2018-12-31T20:28:09.036Z,20.30
2018-12-31T20:31:21.017Z,18.73
2018-12-31T20:37:59.734Z,18.20
2018-12-31T20:40:42.474Z,19.20
2018-12-31T20:43:08.454Z,17.80
2018-12-31T20:46:22.784Z,18.20
2018-12-31T20:49:09.203Z,17.20
2018-12-31T20:52:04.294Z,17.57
2018-12-31T20:55:18.265Z,16.63
2018-12-31T20:58:19.386Z,16.10
2018-12-31T21:06:54.134Z,16.00
2018-12-31T21:09:29.001Z,17.00
2018-12-31T21:12:06.661Z,17.67
2018-12-31T21:15:06.313Z,16.60
2018-12-31T21:17:38.355Z,16.50
2018-12-31T21:23:29.697Z,19.10
2018-12-31T21:26:22.660Z,18.80
2018-12-31T21:28:50.125Z,18.67
2018-12-31T21:31:37.862Z,18.37
2018-12-31T21:34:10.242Z,18.80
2018-12-31T21:36:38.655Z,18.70
2018-12-31T21:39:08.091Z,18.50
2018-12-31T21:41:49.744Z,17.87
2018-12-31T21:44:22.516Z,16.67
2018-12-31T21:46:53.985Z,16.97
2018-12-31T21:49:49.223Z,15.57
2018-12-31T21:52:21.585Z,15.60
2018-12-31T21:55:03.709Z,15.53
2018-12-31T21:57:44.387Z,15.57
2018-12-31T22:00:30.454Z,15.37
2018-12-31T22:03:37.256Z,16.03
2018-12-31T22:06:03.182Z,16.37
2018-12-31T22:08:29.604Z,17.13
2018-12-31T22:11:05.437Z,16.80
2018-12-31T22:13:40.661Z,18.90
2018-12-31T22:23:04.021Z,19.17
2018-12-31T22:25:32.295Z,17.77
2018-12-31T22:28:00.503Z,17.93
2018-12-31T22:30:28.698Z,17.83
2018-12-31T22:33:03.284Z,18.70
2018-12-31T22:35:44.563Z,17.23
2018-12-31T22:38:20.880Z,17.23
2018-12-31T22:40:49.592Z,17.73
2018-12-31T22:43:33.131Z,17.97
2018-12-31T22:46:04.503Z,17.63
2018-12-31T22:48:34.760Z,18.33
2018-12-31T22:51:06.585Z,17.93
2018-12-31T22:53:40.149Z,19.40
2018-12-31T22:56:11.958Z,19.50
2018-12-31T22:58:40.861Z,19.87
2018-12-31T23:01:14.686Z,21.27
2018-12-31T23:03:47.764Z,21.67
2018-12-31T23:06:16.519Z,21.20
2018-12-31T23:08:50.624Z,20.80
2018-12-31T23:11:25.863Z,20.00
2018-12-31T23:13:51.186Z,19.97
2018-12-31T23:16:21.671Z,19.57
2018-12-31T23:18:50.091Z,20.23
2018-12-31T23:21:21.290Z,20.13
2018-12-31T23:23:49.947Z,20.53
2018-12-31T23:26:22.723Z,20.00
2018-12-31T23:28:54.210Z,18.83
2018-12-31T23:31:25.708Z,19.37
2018-12-31T23:33:54.767Z,19.10
2018-12-31T23:36:23.160Z,19.53
2018-12-31T23:38:53.120Z,19.17
2018-12-31T23:41:26.522Z,18.07
2018-12-31T23:43:55.143Z,19.20
2018-12-31T23:46:23.561Z,19.67
2018-12-31T23:48:53.563Z,18.87
2018-12-31T23:51:22.152Z,18.40
2018-12-31T23:53:53.583Z,19.17
2018-12-31T23:56:22.179Z,18.67
2018-12-31T23:58:54.252Z,18.33
